Keiho Maru — JJ4010 — position and weather

sailwx.info

Track history (hours):
 
Tides and Currents Weather Stations Pressure Air Temp Water Temp Dewpoint Dewpoint Depression Visibility Wind Speed Wind Dir Waves Ship Positions

Keiho Maru

Last reported at 2017-Mar-22 15:33 UTC. Time now 2017-Mar-26 13:06 UTC.
Position N 34°41' E 135°12'.

Length 38 m; draft 3.6 m.

Type: Tug. MMSI: 431401501.

Date/timePositionNaut miles runAvg speedWind from/ knotsBaromVisibWave heightAir tempDewpointWater temp
2017-Mar-22 15:33N 34°41' E 135°12'3 2.5
2017-Mar-22 14:33N 34°41' E 135°15'2 2.0
2017-Mar-22 13:33N 34°40' E 135°13'0 0.0
2017-Mar-22 12:33N 34°40' E 135°13'1 1.3
2017-Mar-22 11:33N 34°39' E 135°15'1 1.4
2017-Mar-22 10:33N 34°40' E 135°13'0 0.0
2017-Mar-22 09:33N 34°40' E 135°13'0 0.0
2017-Mar-22 08:33N 34°40' E 135°13'2 2.1
2017-Mar-22 07:33N 34°41' E 135°16'1 0.7
2017-Mar-22 06:33N 34°41' E 135°17'0 0.0
2017-Mar-22 05:33N 34°41' E 135°17'0 0.0
2017-Mar-22 04:33N 34°41' E 135°17'0 0.0
2017-Mar-22 03:32N 34°41' E 135°17'0 0.5
2017-Mar-22 02:33N 34°41' E 135°16'3 3.2
2017-Mar-22 01:33N 34°40' E 135°12'0 0.1
2017-Mar-22 00:33N 34°41' E 135°12'0 0.1
2017-Mar-21 23:33N 34°41' E 135°12'3 3.3
2017-Mar-21 22:33N 34°39' E 135°16'1 0.9
2017-Mar-21 21:33N 34°39' E 135°15'0 0.0
2017-Mar-21 20:33N 34°39' E 135°15'0 0.0
2017-Mar-21 19:33N 34°39' E 135°15'0 0.0
2017-Mar-21 18:33N 34°39' E 135°15'0 0.0
2017-Mar-21 17:33N 34°39' E 135°15'2 1.9
2017-Mar-21 16:33N 34°41' E 135°15'0 0.0
2017-Mar-21 15:33N 34°41' E 135°15'0 0.0
2017-Mar-21 14:33N 34°41' E 135°15'1 0.9
2017-Mar-21 13:33N 34°42' E 135°15'0 0.1
2017-Mar-21 12:33N 34°42' E 135°15'2 2.0
2017-Mar-21 11:33N 34°40' E 135°14'0 0.4
2017-Mar-21 10:33N 34°40' E 135°14'1 0.9
2017-Mar-21 09:33N 34°40' E 135°15'1 1.2
2017-Mar-21 08:33N 34°41' E 135°17'0 0.0
2017-Mar-21 07:33N 34°41' E 135°17'1 0.6
2017-Mar-21 06:33N 34°41' E 135°16'1 1.3
2017-Mar-21 05:33N 34°39' E 135°16'1 1.2
2017-Mar-21 04:33N 34°40' E 135°15'2 2.0
2017-Mar-21 03:33N 34°41' E 135°12'0 0.0
2017-Mar-21 02:33N 34°41' E 135°12'0 0.0
2017-Mar-21 01:33N 34°41' E 135°12'0 0.0
2017-Mar-21 00:33N 34°41' E 135°12'3 3.0
2017-Mar-20 23:33N 34°42' E 135°16'2 2.0
2017-Mar-20 22:33N 34°40' E 135°15'2 2.2
2017-Mar-20 21:33N 34°41' E 135°12'0 0.1
2017-Mar-20 20:33N 34°41' E 135°12'0 0.0
2017-Mar-20 08:33N 34°41' E 135°12'3 3.1
2017-Mar-20 07:33N 34°39' E 135°15'3 3.1
2017-Mar-20 06:33N 34°41' E 135°12'0 0.0
2017-Mar-20 05:33N 34°41' E 135°12'0 0.0
2017-Mar-20 04:33N 34°41' E 135°12'0 0.0
2017-Mar-20 03:33N 34°41' E 135°12'0 0.0
2017-Mar-20 02:33N 34°41' E 135°12'0 0.0
2017-Mar-20 01:33N 34°41' E 135°12'2 2.5
2017-Mar-20 00:33N 34°42' E 135°15'2 2.5
2017-Mar-19 23:33N 34°41' E 135°12'4 4.4
2017-Mar-19 22:33N 34°41' E 135°17'3 2.9
2017-Mar-19 21:33N 34°41' E 135°14'1 1.4
2017-Mar-19 20:33N 34°41' E 135°12'0 0.0
2017-Mar-18 03:12N 34°41' E 135°12'0 0.0
2017-Mar-18 02:33N 34°41' E 135°12'0 0.0
2017-Mar-18 01:33N 34°41' E 135°12'0 0.0
2017-Mar-18 00:33N 34°41' E 135°12'0 0.0
2017-Mar-17 23:33N 34°41' E 135°12'0 0.0
2017-Mar-16 23:13N 34°41' E 135°12'2 2.7
2017-Mar-16 22:33N 34°40' E 135°14'1 1.0
2017-Mar-16 21:33N 34°39' E 135°15'0 0.0
2017-Mar-16 20:33N 34°39' E 135°15'0 0.0
2017-Mar-16 19:33N 34°39' E 135°15'0 0.0
2017-Mar-16 18:33N 34°39' E 135°15'0 0.0
2017-Mar-16 17:33N 34°39' E 135°15'2 2.3
2017-Mar-16 16:33N 34°41' E 135°17'0 0.0
2017-Mar-16 15:33N 34°41' E 135°17'0 0.0
2017-Mar-16 14:33N 34°41' E 135°17'0 0.0
2017-Mar-16 13:33N 34°41' E 135°17'1 1.2
2017-Mar-16 12:33N 34°41' E 135°15'1 1.2
2017-Mar-16 11:33N 34°40' E 135°15'2 1.9
2017-Mar-16 10:33N 34°40' E 135°13'4 4.1
2017-Mar-16 09:33N 34°42' E 135°18'0 0.4
2017-Mar-16 08:32N 34°42' E 135°17'0 0.4
2017-Mar-16 07:33N 34°41' E 135°17'4 4.1
2017-Mar-16 06:33N 34°41' E 135°12'0 0.0
2017-Mar-16 05:33N 34°41' E 135°12'0 0.0
2017-Mar-16 04:33N 34°41' E 135°12'0 0.0
2017-Mar-16 03:33N 34°41' E 135°12'0 0.0
2017-Mar-16 02:33N 34°41' E 135°12'0 0.0
2017-Mar-16 01:33N 34°41' E 135°12'0 0.0
2017-Mar-16 00:33N 34°41' E 135°12'4 4.2
2017-Mar-15 23:33N 34°42' E 135°17'2 1.6
2017-Mar-15 22:33N 34°41' E 135°17'2 2.0
2017-Mar-15 21:33N 34°42' E 135°16'3 3.2
2017-Mar-15 20:33N 34°41' E 135°12'1 0.0
2017-Mar-13 21:33N 34°41' E 135°13'2 2.1
2017-Mar-13 20:33N 34°42' E 135°15'0 0.0
2017-Mar-13 19:33N 34°42' E 135°15'0 0.0
2017-Mar-13 18:33N 34°42' E 135°15'0 0.0
2017-Mar-13 17:33N 34°42' E 135°15'0 0.0
2017-Mar-13 16:33N 34°42' E 135°15'2 2.3
2017-Mar-13 15:33N 34°40' E 135°14'2 1.7
2017-Mar-13 14:33N 34°41' E 135°12'0 0.0
2017-Mar-13 13:33N 34°41' E 135°12'0 0.0
2017-Mar-13 12:33N 34°41' E 135°12'0 0.0
2017-Mar-13 11:33N 34°41' E 135°12'0 0.0
2017-Mar-13 05:33N 34°41' E 135°12'  
Track history (hours):
 
Tides and Currents Weather Stations Pressure Air Temp Water Temp Dewpoint Dewpoint Depression Visibility Wind Speed Wind Dir Waves Ship Positions

Keiho Maru

Last reported at 2017-Mar-22 15:33 UTC. Time now 2017-Mar-26 13:06 UTC.
Position N 34°41' E 135°12'.

Length 38 m; draft 3.6 m.

Type: Tug. MMSI: 431401501.

Date/timePositionNaut miles runAvg speedWind from/ knotsBaromVisibWave heightAir tempDewpointWater temp
2017-Mar-22 15:33N 34°41' E 135°12'3 2.5
2017-Mar-22 14:33N 34°41' E 135°15'2 2.0
2017-Mar-22 13:33N 34°40' E 135°13'0 0.0
2017-Mar-22 12:33N 34°40' E 135°13'1 1.3
2017-Mar-22 11:33N 34°39' E 135°15'1 1.4
2017-Mar-22 10:33N 34°40' E 135°13'0 0.0
2017-Mar-22 09:33N 34°40' E 135°13'0 0.0
2017-Mar-22 08:33N 34°40' E 135°13'2 2.1
2017-Mar-22 07:33N 34°41' E 135°16'1 0.7
2017-Mar-22 06:33N 34°41' E 135°17'0 0.0
2017-Mar-22 05:33N 34°41' E 135°17'0 0.0
2017-Mar-22 04:33N 34°41' E 135°17'0 0.0
2017-Mar-22 03:32N 34°41' E 135°17'0 0.5
2017-Mar-22 02:33N 34°41' E 135°16'3 3.2
2017-Mar-22 01:33N 34°40' E 135°12'0 0.1
2017-Mar-22 00:33N 34°41' E 135°12'0 0.1
2017-Mar-21 23:33N 34°41' E 135°12'3 3.3
2017-Mar-21 22:33N 34°39' E 135°16'1 0.9
2017-Mar-21 21:33N 34°39' E 135°15'0 0.0
2017-Mar-21 20:33N 34°39' E 135°15'0 0.0
2017-Mar-21 19:33N 34°39' E 135°15'0 0.0
2017-Mar-21 18:33N 34°39' E 135°15'0 0.0
2017-Mar-21 17:33N 34°39' E 135°15'2 1.9
2017-Mar-21 16:33N 34°41' E 135°15'0 0.0
2017-Mar-21 15:33N 34°41' E 135°15'0 0.0
2017-Mar-21 14:33N 34°41' E 135°15'1 0.9
2017-Mar-21 13:33N 34°42' E 135°15'0 0.1
2017-Mar-21 12:33N 34°42' E 135°15'2 2.0
2017-Mar-21 11:33N 34°40' E 135°14'0 0.4
2017-Mar-21 10:33N 34°40' E 135°14'1 0.9
2017-Mar-21 09:33N 34°40' E 135°15'1 1.2
2017-Mar-21 08:33N 34°41' E 135°17'0 0.0
2017-Mar-21 07:33N 34°41' E 135°17'1 0.6
2017-Mar-21 06:33N 34°41' E 135°16'1 1.3
2017-Mar-21 05:33N 34°39' E 135°16'1 1.2
2017-Mar-21 04:33N 34°40' E 135°15'2 2.0
2017-Mar-21 03:33N 34°41' E 135°12'0 0.0
2017-Mar-21 02:33N 34°41' E 135°12'0 0.0
2017-Mar-21 01:33N 34°41' E 135°12'0 0.0
2017-Mar-21 00:33N 34°41' E 135°12'3 3.0
2017-Mar-20 23:33N 34°42' E 135°16'2 2.0
2017-Mar-20 22:33N 34°40' E 135°15'2 2.2
2017-Mar-20 21:33N 34°41' E 135°12'0 0.1
2017-Mar-20 20:33N 34°41' E 135°12'0 0.0
2017-Mar-20 08:33N 34°41' E 135°12'3 3.1
2017-Mar-20 07:33N 34°39' E 135°15'3 3.1
2017-Mar-20 06:33N 34°41' E 135°12'0 0.0
2017-Mar-20 05:33N 34°41' E 135°12'0 0.0
2017-Mar-20 04:33N 34°41' E 135°12'0 0.0
2017-Mar-20 03:33N 34°41' E 135°12'0 0.0
2017-Mar-20 02:33N 34°41' E 135°12'0 0.0
2017-Mar-20 01:33N 34°41' E 135°12'2 2.5
2017-Mar-20 00:33N 34°42' E 135°15'2 2.5
2017-Mar-19 23:33N 34°41' E 135°12'4 4.4
2017-Mar-19 22:33N 34°41' E 135°17'3 2.9
2017-Mar-19 21:33N 34°41' E 135°14'1 1.4
2017-Mar-19 20:33N 34°41' E 135°12'0 0.0
2017-Mar-18 03:12N 34°41' E 135°12'0 0.0
2017-Mar-18 02:33N 34°41' E 135°12'0 0.0
2017-Mar-18 01:33N 34°41' E 135°12'0 0.0
2017-Mar-18 00:33N 34°41' E 135°12'0 0.0
2017-Mar-17 23:33N 34°41' E 135°12'0 0.0
2017-Mar-16 23:13N 34°41' E 135°12'2 2.7
2017-Mar-16 22:33N 34°40' E 135°14'1 1.0
2017-Mar-16 21:33N 34°39' E 135°15'0 0.0
2017-Mar-16 20:33N 34°39' E 135°15'0 0.0
2017-Mar-16 19:33N 34°39' E 135°15'0 0.0
2017-Mar-16 18:33N 34°39' E 135°15'0 0.0
2017-Mar-16 17:33N 34°39' E 135°15'2 2.3
2017-Mar-16 16:33N 34°41' E 135°17'0 0.0
2017-Mar-16 15:33N 34°41' E 135°17'0 0.0
2017-Mar-16 14:33N 34°41' E 135°17'0 0.0
2017-Mar-16 13:33N 34°41' E 135°17'1 1.2
2017-Mar-16 12:33N 34°41' E 135°15'1 1.2
2017-Mar-16 11:33N 34°40' E 135°15'2 1.9
2017-Mar-16 10:33N 34°40' E 135°13'4 4.1
2017-Mar-16 09:33N 34°42' E 135°18'0 0.4
2017-Mar-16 08:32N 34°42' E 135°17'0 0.4
2017-Mar-16 07:33N 34°41' E 135°17'4 4.1
2017-Mar-16 06:33N 34°41' E 135°12'0 0.0
2017-Mar-16 05:33N 34°41' E 135°12'0 0.0
2017-Mar-16 04:33N 34°41' E 135°12'0 0.0
2017-Mar-16 03:33N 34°41' E 135°12'0 0.0
2017-Mar-16 02:33N 34°41' E 135°12'0 0.0
2017-Mar-16 01:33N 34°41' E 135°12'0 0.0
2017-Mar-16 00:33N 34°41' E 135°12'4 4.2
2017-Mar-15 23:33N 34°42' E 135°17'2 1.6
2017-Mar-15 22:33N 34°41' E 135°17'2 2.0
2017-Mar-15 21:33N 34°42' E 135°16'3 3.2
2017-Mar-15 20:33N 34°41' E 135°12'1 0.0
2017-Mar-13 21:33N 34°41' E 135°13'2 2.1
2017-Mar-13 20:33N 34°42' E 135°15'0 0.0
2017-Mar-13 19:33N 34°42' E 135°15'0 0.0
2017-Mar-13 18:33N 34°42' E 135°15'0 0.0
2017-Mar-13 17:33N 34°42' E 135°15'0 0.0
2017-Mar-13 16:33N 34°42' E 135°15'2 2.3
2017-Mar-13 15:33N 34°40' E 135°14'2 1.7
2017-Mar-13 14:33N 34°41' E 135°12'0 0.0
2017-Mar-13 13:33N 34°41' E 135°12'0 0.0
2017-Mar-13 12:33N 34°41' E 135°12'0 0.0
2017-Mar-13 11:33N 34°41' E 135°12'0 0.0
2017-Mar-13 05:33N 34°41' E 135°12'  

Dump ship's entire track history